Time;durP1;ratioP1;P1;durP2;ratioP2;P2;SDS_P1;SDS_P2;PMS_P1;PMS_P2;Temp;Humidity;BMP_temperature;BMP_pressure;BME280_temperature;BME280_humidity;BME280_pressure;Samples;Min_cycle;Max_cycle;Signal;HPM_P1;HPM_P2
2021/07/16 00:02:05;;;;;;;8.73;7.87;;;;;;;;;;5097647;28;20304;-73
2021/07/16 00:04:35;;;;;;;9.83;8.00;;;;;;;;;;5097759;28;20257;-73
2021/07/16 00:07:03;;;;;;;11.83;7.60;;;;;;;;;;5099686;28;20205;-73
2021/07/16 00:09:31;;;;;;;9.40;8.37;;;;;;;;;;5101853;28;20207;-73
2021/07/16 00:11:59;;;;;;;9.43;8.27;;;;;;;;;;5101508;28;20224;-73
2021/07/16 00:14:27;;;;;;;10.90;8.07;;;;;;;;;;5088310;28;20201;-73
2021/07/16 00:16:55;;;;;;;8.90;8.00;;;;;;;;;;5102449;28;20198;-73
2021/07/16 00:19:23;;;;;;;8.60;7.73;;;;;;;;;;5119087;28;20210;-73
2021/07/16 00:21:53;;;;;;;10.80;8.10;;;;;;;;;;5101899;28;20229;-73
2021/07/16 00:24:21;;;;;;;9.10;7.23;;;;;;;;;;5101860;28;20282;-73
2021/07/16 00:26:49;;;;;;;8.30;7.47;;;;;;;;;;5101886;28;20212;-72
2021/07/16 00:29:17;;;;;;;10.03;7.60;;;;;;;;;;5101393;28;20209;-73
2021/07/16 00:31:45;;;;;;;8.53;7.63;;;;;;;;;;5101559;28;20228;-72
2021/07/16 00:34:13;;;;;;;7.83;7.07;;;;;;;;;;5101767;28;20212;-72
2021/07/16 00:36:41;;;;;;;8.83;7.60;;;;;;;;;;5101529;28;20205;-72
2021/07/16 00:39:10;;;;;;;8.67;7.77;;;;;;;;;;5101547;28;20210;-72
2021/07/16 00:41:38;;;;;;;8.33;7.10;;;;;;;;;;5101142;28;20726;-73
2021/07/16 00:44:07;;;;;;;7.13;6.47;;;;;;;;;;5101168;28;20216;-72
2021/07/16 00:46:35;;;;;;;7.23;6.50;;;;;;;;;;5101455;28;20682;-72
2021/07/16 00:49:03;;;;;;;6.87;6.23;;;;;;;;;;5101411;28;20216;-73
2021/07/16 00:51:32;;;;;;;9.33;6.77;;;;;;;;;;5101305;28;20244;-72
2021/07/16 00:53:59;;;;;;;8.00;7.10;;;;;;;;;;5101110;28;20306;-72
2021/07/16 00:56:29;;;;;;;7.57;6.77;;;;;;;;;;5101181;28;20208;-73
2021/07/16 00:58:57;;;;;;;9.23;6.73;;;;;;;;;;5101089;28;20205;-73
2021/07/16 01:01:25;;;;;;;7.27;6.50;;;;;;;;;;5101076;28;20222;-72
2021/07/16 01:03:53;;;;;;;7.27;6.47;;;;;;;;;;5101224;28;20253;-72
2021/07/16 01:06:21;;;;;;;7.80;5.90;;;;;;;;;;5101023;28;20228;-72
2021/07/16 01:08:49;;;;;;;6.27;5.67;;;;;;;;;;5101140;28;20248;-72
2021/07/16 01:11:17;;;;;;;5.90;5.30;;;;;;;;;;5100840;28;20316;-72
2021/07/16 01:13:46;;;;;;;6.90;5.77;;;;;;;;;;5100348;28;20210;-72
2021/07/16 01:16:14;;;;;;;6.37;5.77;;;;;;;;;;5100710;28;20205;-71
2021/07/16 01:18:42;;;;;;;5.97;5.27;;;;;;;;;;5099726;28;20213;-72
2021/07/16 01:21:11;;;;;;;6.53;5.13;;;;;;;;;;5100670;28;20205;-72
2021/07/16 01:23:41;;;;;;;4.63;4.23;;;;;;;;;;5100759;28;20208;-72
2021/07/16 01:26:09;;;;;;;4.63;4.20;;;;;;;;;;5100587;28;20233;-71
2021/07/16 01:28:38;;;;;;;4.70;4.30;;;;;;;;;;5100103;28;20212;-71
2021/07/16 01:31:07;;;;;;;4.70;4.23;;;;;;;;;;5100708;28;20213;-71
2021/07/16 01:33:35;;;;;;;4.30;4.00;;;;;;;;;;5100530;28;20205;-71
2021/07/16 01:36:03;;;;;;;5.97;4.50;;;;;;;;;;5100536;28;20205;-71
2021/07/16 01:38:31;;;;;;;4.37;3.90;;;;;;;;;;5100158;28;20232;-71
2021/07/16 01:41:00;;;;;;;3.93;3.63;;;;;;;;;;5100323;28;20212;-72
2021/07/16 01:43:28;;;;;;;3.77;3.47;;;;;;;;;;5099792;28;20212;-72
2021/07/16 01:45:56;;;;;;;4.33;3.93;;;;;;;;;;5100043;28;20247;-72
2021/07/16 01:48:25;;;;;;;7.07;4.13;;;;;;;;;;5098247;28;20201;-72
2021/07/16 01:50:53;;;;;;;4.20;3.73;;;;;;;;;;5087366;28;20205;-72
2021/07/16 01:53:21;;;;;;;4.63;4.13;;;;;;;;;;5107026;28;20562;-72
2021/07/16 01:55:49;;;;;;;4.10;3.80;;;;;;;;;;5120540;28;20197;-72
2021/07/16 01:58:19;;;;;;;3.97;3.67;;;;;;;;;;5120454;28;20211;-72
2021/07/16 02:00:48;;;;;;;4.67;4.17;;;;;;;;;;5105432;28;20698;-72
2021/07/16 02:03:17;;;;;;;6.03;3.70;;;;;;;;;;5099780;28;20321;-71
2021/07/16 02:05:46;;;;;;;4.33;3.67;;;;;;;;;;5108554;28;20303;-71
2021/07/16 02:08:15;;;;;;;4.30;3.70;;;;;;;;;;5120183;28;20288;-71
2021/07/16 02:10:43;;;;;;;6.50;4.23;;;;;;;;;;5120172;28;20219;-71
2021/07/16 02:13:12;;;;;;;4.97;3.60;;;;;;;;;;5104858;28;20728;-71
2021/07/16 02:15:42;;;;;;;4.00;3.70;;;;;;;;;;5099497;28;20209;-72
2021/07/16 02:18:10;;;;;;;4.23;3.83;;;;;;;;;;5099738;28;20206;-73
2021/07/16 02:20:39;;;;;;;6.23;4.10;;;;;;;;;;5096905;28;20213;-73
2021/07/16 02:23:08;;;;;;;3.60;3.30;;;;;;;;;;5098178;28;20711;-72
2021/07/16 02:25:36;;;;;;;3.53;3.23;;;;;;;;;;5099195;28;20228;-73
2021/07/16 02:28:05;;;;;;;3.63;3.33;;;;;;;;;;5099466;28;20205;-73
2021/07/16 02:30:33;;;;;;;4.47;3.73;;;;;;;;;;5098728;28;20210;-72
2021/07/16 02:33:04;;;;;;;3.03;2.70;;;;;;;;;;5099124;28;20596;-72
2021/07/16 02:35:32;;;;;;;6.47;3.00;;;;;;;;;;5099480;28;20204;-72
2021/07/16 02:38:01;;;;;;;3.33;3.03;;;;;;;;;;5093228;28;20240;-72
2021/07/16 02:40:29;;;;;;;3.53;3.23;;;;;;;;;;5093314;28;20618;-72
2021/07/16 02:42:57;;;;;;;3.43;3.13;;;;;;;;;;5099139;28;20232;-72
2021/07/16 02:45:25;;;;;;;3.43;3.13;;;;;;;;;;5098411;28;20633;-73
2021/07/16 02:47:53;;;;;;;3.37;3.07;;;;;;;;;;5099221;28;20205;-73
2021/07/16 02:50:24;;;;;;;4.90;3.07;;;;;;;;;;5093024;28;20247;-73
2021/07/16 02:52:53;;;;;;;3.30;3.00;;;;;;;;;;5115597;28;20227;-74
2021/07/16 02:55:21;;;;;;;3.10;2.80;;;;;;;;;;5108545;28;20277;-73
2021/07/16 02:57:49;;;;;;;3.13;2.83;;;;;;;;;;5119016;28;20207;-73
2021/07/16 03:00:18;;;;;;;4.40;3.37;;;;;;;;;;5108151;28;20665;-73
2021/07/16 03:02:46;;;;;;;2.80;2.60;;;;;;;;;;5098512;28;20618;-73
2021/07/16 03:05:16;;;;;;;3.07;2.77;;;;;;;;;;5098713;28;20209;-73
2021/07/16 03:07:46;;;;;;;3.00;2.70;;;;;;;;;;5104034;28;20255;-73
2021/07/16 03:10:15;;;;;;;4.33;2.47;;;;;;;;;;5119037;28;20268;-73
2021/07/16 03:12:43;;;;;;;2.97;2.63;;;;;;;;;;5105446;28;20225;-73
2021/07/16 03:15:12;;;;;;;2.70;2.50;;;;;;;;;;5105546;28;20209;-72
2021/07/16 03:17:40;;;;;;;2.70;2.50;;;;;;;;;;5118973;28;20205;-72
2021/07/16 03:20:09;;;;;;;3.83;2.70;;;;;;;;;;5109183;28;20201;-72
2021/07/16 03:22:37;;;;;;;2.70;2.50;;;;;;;;;;5098513;28;20698;-72
2021/07/16 03:25:08;;;;;;;2.30;2.20;;;;;;;;;;5098512;28;20215;-73
2021/07/16 03:27:36;;;;;;;2.83;2.53;;;;;;;;;;5098576;28;20229;-72
2021/07/16 03:30:07;;;;;;;2.30;2.17;;;;;;;;;;5098515;28;20288;-72
2021/07/16 03:32:35;;;;;;;2.37;2.17;;;;;;;;;;5098403;28;20236;-72
2021/07/16 03:35:03;;;;;;;2.63;2.40;;;;;;;;;;5098495;28;20212;-72
2021/07/16 03:37:31;;;;;;;3.73;2.63;;;;;;;;;;5098106;28;20237;-72
2021/07/16 03:39:59;;;;;;;2.53;2.37;;;;;;;;;;5097943;28;20212;-72
2021/07/16 03:42:28;;;;;;;3.73;2.37;;;;;;;;;;5097287;28;20704;-72
2021/07/16 03:44:56;;;;;;;2.07;1.90;;;;;;;;;;5097963;28;20205;-72
2021/07/16 03:47:24;;;;;;;5.83;2.63;;;;;;;;;;5097976;28;20233;-74
2021/07/16 03:49:52;;;;;;;2.17;1.97;;;;;;;;;;5097897;28;20212;-73
2021/07/16 03:52:21;;;;;;;3.97;2.33;;;;;;;;;;5098062;28;20231;-73
2021/07/16 03:54:50;;;;;;;3.70;2.47;;;;;;;;;;5098073;28;20209;-73
2021/07/16 03:57:18;;;;;;;3.13;2.40;;;;;;;;;;5097801;28;20653;-73
2021/07/16 03:59:48;;;;;;;3.00;2.63;;;;;;;;;;5097787;28;20208;-73
2021/07/16 04:02:16;;;;;;;2.60;2.20;;;;;;;;;;5097876;28;20700;-73
2021/07/16 04:04:45;;;;;;;2.90;2.30;;;;;;;;;;5098045;28;20231;-73
2021/07/16 04:07:17;;;;;;;4.10;2.40;;;;;;;;;;5097882;28;20225;-73
2021/07/16 04:09:45;;;;;;;2.30;2.00;;;;;;;;;;5097664;28;20288;-73
2021/07/16 04:12:14;;;;;;;2.50;2.30;;;;;;;;;;5097580;28;20225;-73
2021/07/16 04:14:43;;;;;;;2.60;2.40;;;;;;;;;;5097110;28;20680;-73
2021/07/16 04:17:13;;;;;;;2.93;2.60;;;;;;;;;;5097474;28;20211;-73
2021/07/16 04:19:42;;;;;;;5.23;2.53;;;;;;;;;;5097475;28;20206;-72
2021/07/16 04:22:10;;;;;;;3.00;2.50;;;;;;;;;;5096886;28;20226;-73
2021/07/16 04:24:38;;;;;;;2.83;2.53;;;;;;;;;;5096917;28;20206;-73
2021/07/16 04:27:07;;;;;;;3.63;2.57;;;;;;;;;;5097000;28;20230;-73
2021/07/16 04:29:36;;;;;;;2.20;1.93;;;;;;;;;;5097240;28;20213;-72
2021/07/16 04:32:05;;;;;;;2.90;2.10;;;;;;;;;;5097283;28;20228;-72
2021/07/16 04:34:35;;;;;;;2.80;2.50;;;;;;;;;;5097179;28;20210;-73
2021/07/16 04:37:04;;;;;;;2.03;1.93;;;;;;;;;;5097332;28;20290;-73
2021/07/16 04:39:32;;;;;;;3.17;2.33;;;;;;;;;;5097226;28;20643;-73
2021/07/16 04:42:00;;;;;;;4.23;2.10;;;;;;;;;;5097617;28;20229;-73
2021/07/16 04:44:28;;;;;;;2.87;2.27;;;;;;;;;;5097070;28;20206;-74
2021/07/16 04:46:56;;;;;;;2.33;1.97;;;;;;;;;;5097595;28;20222;-73
2021/07/16 04:49:24;;;;;;;1.77;1.67;;;;;;;;;;5097503;28;20663;-74
2021/07/16 04:51:54;;;;;;;2.03;1.83;;;;;;;;;;5096708;28;20233;-74
2021/07/16 04:54:23;;;;;;;1.90;1.80;;;;;;;;;;5101306;28;20240;-74
2021/07/16 04:56:51;;;;;;;2.87;1.70;;;;;;;;;;5101699;28;20208;-74
2021/07/16 04:59:19;;;;;;;2.90;1.90;;;;;;;;;;5100927;28;20216;-74
2021/07/16 05:01:48;;;;;;;1.67;1.57;;;;;;;;;;5101155;28;20225;-74
2021/07/16 05:04:18;;;;;;;2.13;1.80;;;;;;;;;;5101203;28;20201;-74
2021/07/16 05:06:46;;;;;;;1.93;1.83;;;;;;;;;;5101086;28;20281;-73
2021/07/16 05:09:16;;;;;;;1.90;1.80;;;;;;;;;;5100735;28;20547;-73
2021/07/16 05:11:45;;;;;;;3.13;1.80;;;;;;;;;;5100556;28;20309;-72
2021/07/16 05:14:13;;;;;;;3.07;1.57;;;;;;;;;;5100363;28;20595;-72
2021/07/16 05:16:43;;;;;;;1.87;1.73;;;;;;;;;;5101144;28;20201;-72
2021/07/16 05:19:11;;;;;;;3.20;1.60;;;;;;;;;;5100672;28;20213;-72
2021/07/16 05:21:39;;;;;;;2.00;1.90;;;;;;;;;;5100487;28;20226;-73
2021/07/16 05:24:07;;;;;;;2.13;1.93;;;;;;;;;;5100852;28;20205;-72
2021/07/16 05:26:36;;;;;;;2.23;1.90;;;;;;;;;;5100197;28;20676;-72
2021/07/16 05:29:04;;;;;;;3.23;1.90;;;;;;;;;;5100403;28;20205;-72
2021/07/16 05:31:32;;;;;;;3.87;2.20;;;;;;;;;;5100417;28;20227;-72
2021/07/16 05:34:00;;;;;;;3.13;1.70;;;;;;;;;;5100716;28;20263;-72
2021/07/16 05:36:28;;;;;;;3.47;1.93;;;;;;;;;;5100477;28;20210;-72
2021/07/16 05:39:02;;;;;;;2.40;2.20;;;;;;;;;;5060245;28;20207;-72
2021/07/16 05:41:30;;;;;;;2.10;1.70;;;;;;;;;;5059693;28;20705;-72
2021/07/16 05:43:59;;;;;;;1.83;1.73;;;;;;;;;;5059765;28;20290;-72
2021/07/16 05:46:30;;;;;;;4.13;2.10;;;;;;;;;;5059422;28;20294;-72
2021/07/16 05:48:58;;;;;;;3.00;2.20;;;;;;;;;;5059544;28;20227;-72
2021/07/16 05:51:26;;;;;;;2.17;1.90;;;;;;;;;;5058043;28;20229;-74
2021/07/16 05:53:54;;;;;;;2.80;1.83;;;;;;;;;;5058926;28;20205;-73
2021/07/16 05:56:22;;;;;;;2.27;1.90;;;;;;;;;;5078716;28;20221;-73
2021/07/16 05:58:50;;;;;;;1.87;1.57;;;;;;;;;;5063106;28;20583;-73
2021/07/16 06:01:19;;;;;;;1.83;1.70;;;;;;;;;;5059481;28;20218;-73
2021/07/16 06:03:47;;;;;;;1.80;1.70;;;;;;;;;;5053677;28;20210;-74
2021/07/16 06:06:15;;;;;;;1.90;1.80;;;;;;;;;;5059624;28;20211;-74
2021/07/16 06:08:43;;;;;;;4.30;1.70;;;;;;;;;;5059220;28;20720;-74
2021/07/16 06:11:11;;;;;;;3.03;1.83;;;;;;;;;;5067403;28;20220;-73
2021/07/16 06:13:39;;;;;;;1.90;1.80;;;;;;;;;;5075610;28;20202;-73
2021/07/16 06:16:07;;;;;;;2.93;1.87;;;;;;;;;;5079317;28;20202;-73
2021/07/16 06:18:36;;;;;;;1.97;1.87;;;;;;;;;;5078954;28;20198;-72
2021/07/16 06:21:06;;;;;;;3.67;1.70;;;;;;;;;;5064852;28;20674;-72
2021/07/16 06:23:34;;;;;;;3.00;1.77;;;;;;;;;;5059339;28;20290;-72
2021/07/16 06:26:02;;;;;;;2.20;2.00;;;;;;;;;;5059352;28;20294;-73
2021/07/16 06:28:30;;;;;;;2.47;2.30;;;;;;;;;;5058971;28;20231;-73
2021/07/16 06:30:58;;;;;;;2.90;2.30;;;;;;;;;;5059163;28;20218;-73
2021/07/16 06:33:26;;;;;;;3.60;2.47;;;;;;;;;;5058753;28;20213;-72
2021/07/16 06:35:55;;;;;;;4.77;2.80;;;;;;;;;;5058680;28;20217;-73
2021/07/16 06:38:23;;;;;;;2.60;2.23;;;;;;;;;;5089681;28;20234;-73
2021/07/16 06:40:51;;;;;;;2.40;2.10;;;;;;;;;;5099324;28;20704;-72
2021/07/16 06:43:19;;;;;;;3.70;2.10;;;;;;;;;;5098609;28;20229;-73
2021/07/16 06:45:47;;;;;;;4.17;1.80;;;;;;;;;;5099055;28;20198;-73
2021/07/16 06:48:15;;;;;;;2.07;1.93;;;;;;;;;;5096106;28;20759;-72
2021/07/16 06:50:43;;;;;;;2.97;2.17;;;;;;;;;;5099062;28;20209;-72
2021/07/16 06:53:12;;;;;;;1.60;1.50;;;;;;;;;;5099049;28;20318;-72
2021/07/16 06:55:40;;;;;;;1.97;1.87;;;;;;;;;;5098477;28;20228;-72
2021/07/16 06:58:08;;;;;;;3.20;2.03;;;;;;;;;;5098385;28;20202;-72
2021/07/16 07:00:36;;;;;;;2.10;1.90;;;;;;;;;;5098315;28;20635;-73
2021/07/16 07:03:04;;;;;;;5.83;2.30;;;;;;;;;;5098660;28;20218;-72
2021/07/16 07:05:49;;;;;;;5.67;2.00;;;;;;;;;;5105863;28;20696;-73
2021/07/16 07:08:18;;;;;;;16.87;3.60;;;;;;;;;;5097785;28;20316;-73
2021/07/16 07:10:46;;;;;;;21.50;4.17;;;;;;;;;;5100388;28;20288;-72
2021/07/16 07:13:14;;;;;;;3.50;3.20;;;;;;;;;;5097765;28;20249;-72
2021/07/16 07:15:42;;;;;;;4.00;1.63;;;;;;;;;;5098838;28;20194;-73
2021/07/16 07:18:10;;;;;;;3.13;1.83;;;;;;;;;;5098049;28;20217;-72
2021/07/16 07:20:39;;;;;;;2.97;1.83;;;;;;;;;;5100122;28;20204;-72
2021/07/16 07:23:07;;;;;;;2.90;1.67;;;;;;;;;;5108348;28;20217;-73
2021/07/16 07:25:36;;;;;;;2.67;2.00;;;;;;;;;;5111592;28;20239;-70
2021/07/16 07:28:05;;;;;;;5.83;2.13;;;;;;;;;;5104610;28;20300;-72
2021/07/16 07:30:33;;;;;;;3.83;1.80;;;;;;;;;;5098073;28;20723;-72
2021/07/16 07:33:02;;;;;;;5.00;2.23;;;;;;;;;;5097568;28;20229;-72
2021/07/16 07:35:30;;;;;;;2.13;1.90;;;;;;;;;;5097386;28;20295;-72
2021/07/16 07:37:58;;;;;;;2.10;1.80;;;;;;;;;;5097158;28;20229;-72
2021/07/16 07:40:26;;;;;;;2.43;2.20;;;;;;;;;;5097325;28;20225;-72
2021/07/16 07:42:58;;;;;;;2.13;1.83;;;;;;;;;;5100525;28;20228;-73
2021/07/16 07:45:26;;;;;;;2.43;2.03;;;;;;;;;;5099858;28;20208;-71
2021/07/16 07:47:54;;;;;;;2.33;1.90;;;;;;;;;;5097387;28;20208;-72
2021/07/16 07:50:22;;;;;;;3.53;1.80;;;;;;;;;;5098101;28;20209;-73
2021/07/16 07:52:51;;;;;;;2.27;1.87;;;;;;;;;;5097751;28;20221;-76
2021/07/16 07:55:20;;;;;;;3.03;1.67;;;;;;;;;;5097379;28;20637;-71
2021/07/16 07:57:51;;;;;;;1.40;1.40;;;;;;;;;;5099058;28;20201;-72
2021/07/16 08:00:22;;;;;;;2.00;1.60;;;;;;;;;;5096245;28;20375;-73
2021/07/16 08:02:50;;;;;;;2.43;1.50;;;;;;;;;;5097570;28;20256;-75
2021/07/16 08:05:18;;;;;;;2.53;1.47;;;;;;;;;;5095987;28;20212;-66
2021/07/16 08:07:46;;;;;;;3.87;1.40;;;;;;;;;;5098456;28;20558;-74
2021/07/16 08:10:15;;;;;;;1.00;1.00;;;;;;;;;;5097578;28;20242;-68
2021/07/16 08:12:44;;;;;;;3.47;1.23;;;;;;;;;;5097610;28;20704;-66
2021/07/16 08:15:13;;;;;;;1.40;1.30;;;;;;;;;;5099049;28;20240;-66
2021/07/16 08:17:43;;;;;;;1.83;1.33;;;;;;;;;;5097827;28;20687;-68
2021/07/16 08:20:11;;;;;;;2.50;1.50;;;;;;;;;;5096552;28;20244;-67
2021/07/16 08:22:40;;;;;;;3.90;1.30;;;;;;;;;;5096742;28;20723;-69
2021/07/16 08:25:09;;;;;;;5.50;3.93;;;;;;;;;;5096870;28;20211;-69
2021/07/16 08:27:37;;;;;;;3.43;1.77;;;;;;;;;;5098184;28;20732;-67
2021/07/16 08:30:07;;;;;;;2.53;1.33;;;;;;;;;;5100770;28;20229;-66
2021/07/16 08:32:36;;;;;;;6.00;1.57;;;;;;;;;;5106547;28;20226;-67
2021/07/16 08:35:06;;;;;;;2.40;1.53;;;;;;;;;;5108053;28;20204;-68
2021/07/16 08:37:35;;;;;;;3.27;1.27;;;;;;;;;;5110424;28;20312;-68
2021/07/16 08:40:04;;;;;;;1.73;1.63;;;;;;;;;;5088802;28;20233;-68
2021/07/16 08:42:32;;;;;;;2.00;1.80;;;;;;;;;;5087386;28;20304;-68
2021/07/16 08:45:02;;;;;;;2.30;1.90;;;;;;;;;;5085548;28;20202;-69
2021/07/16 08:47:30;;;;;;;2.87;1.77;;;;;;;;;;5086584;28;20276;-69
2021/07/16 08:49:58;;;;;;;3.23;1.80;;;;;;;;;;5101466;28;20225;-69
2021/07/16 08:52:29;;;;;;;2.50;1.50;;;;;;;;;;5100923;28;20251;-69
2021/07/16 08:54:58;;;;;;;1.97;1.50;;;;;;;;;;5101645;28;20194;-68
2021/07/16 08:57:27;;;;;;;3.30;1.87;;;;;;;;;;5101209;28;20209;-70
2021/07/16 08:59:55;;;;;;;2.97;2.07;;;;;;;;;;5101019;28;20277;-70
2021/07/16 09:02:26;;;;;;;1.67;1.57;;;;;;;;;;5097609;28;20236;-69
2021/07/16 09:04:58;;;;;;;3.50;1.90;;;;;;;;;;5101076;28;20235;-68
2021/07/16 09:07:28;;;;;;;4.20;1.70;;;;;;;;;;5100959;28;20202;-67
2021/07/16 09:10:06;;;;;;;2.20;2.00;;;;;;;;;;5098682;28;20217;-67
2021/07/16 09:12:35;;;;;;;3.93;2.20;;;;;;;;;;5098760;28;20295;-67
2021/07/16 09:15:10;;;;;;;4.57;1.77;;;;;;;;;;5106158;28;20264;-66
2021/07/16 09:17:42;;;;;;;5.63;2.30;;;;;;;;;;5108718;28;20200;-66
2021/07/16 09:20:11;;;;;;;2.37;1.67;;;;;;;;;;5103329;28;20649;-66
2021/07/16 09:22:40;;;;;;;1.90;1.80;;;;;;;;;;5097499;28;20219;-65
2021/07/16 09:25:09;;;;;;;2.70;1.63;;;;;;;;;;5103141;28;20649;-66
2021/07/16 09:27:37;;;;;;;1.73;1.60;;;;;;;;;;5110259;28;20319;-66
2021/07/16 09:30:13;;;;;;;2.50;1.63;;;;;;;;;;5107897;28;20304;-66
2021/07/16 09:32:41;;;;;;;1.57;1.37;;;;;;;;;;5101073;28;20235;-66
2021/07/16 09:35:09;;;;;;;2.10;1.80;;;;;;;;;;5104007;28;20289;-67
2021/07/16 09:37:52;;;;;;;2.93;1.90;;;;;;;;;;5105202;28;20233;-66
2021/07/16 09:40:20;;;;;;;2.70;2.13;;;;;;;;;;5098947;28;20202;-66
2021/07/16 09:42:48;;;;;;;1.67;1.50;;;;;;;;;;5100803;28;20232;-65
2021/07/16 09:45:16;;;;;;;1.70;1.50;;;;;;;;;;5100784;28;20292;-65
2021/07/16 09:47:44;;;;;;;2.10;2.00;;;;;;;;;;5098237;28;20787;-65
2021/07/16 09:50:13;;;;;;;3.00;1.70;;;;;;;;;;5100256;28;20231;-65
2021/07/16 09:52:41;;;;;;;1.87;1.50;;;;;;;;;;5100077;28;20599;-65
2021/07/16 09:55:14;;;;;;;1.87;1.77;;;;;;;;;;5098723;28;20236;-65
2021/07/16 09:57:43;;;;;;;3.20;1.77;;;;;;;;;;5099350;28;20237;-67
2021/07/16 10:00:14;;;;;;;1.73;1.50;;;;;;;;;;5098389;28;20210;-67
2021/07/16 10:02:44;;;;;;;5.50;2.10;;;;;;;;;;5099715;28;20313;-67
2021/07/16 10:05:12;;;;;;;5.17;2.20;;;;;;;;;;5099598;28;20202;-67
2021/07/16 10:07:41;;;;;;;4.90;2.13;;;;;;;;;;5105401;28;20229;-67
2021/07/16 10:10:12;;;;;;;2.80;2.23;;;;;;;;;;5106859;28;20706;-67
2021/07/16 10:12:41;;;;;;;5.63;2.40;;;;;;;;;;5105150;28;20225;-67
2021/07/16 10:15:09;;;;;;;4.27;2.10;;;;;;;;;;5099674;28;20280;-67
2021/07/16 10:17:38;;;;;;;2.33;2.13;;;;;;;;;;5099550;28;20202;-67
2021/07/16 10:20:07;;;;;;;9.40;2.80;;;;;;;;;;5099762;28;20293;-67
2021/07/16 10:22:36;;;;;;;3.40;2.30;;;;;;;;;;5099620;28;20222;-67
2021/07/16 10:25:05;;;;;;;4.33;2.60;;;;;;;;;;5099129;28;20310;-67
2021/07/16 10:27:35;;;;;;;3.87;2.67;;;;;;;;;;5099373;28;20216;-66
2021/07/16 10:30:06;;;;;;;4.03;2.67;;;;;;;;;;5105156;28;20324;-66
2021/07/16 10:32:41;;;;;;;2.47;2.27;;;;;;;;;;5099553;28;20239;-66
2021/07/16 10:35:18;;;;;;;1.93;1.73;;;;;;;;;;5099346;28;20205;-66
2021/07/16 10:37:46;;;;;;;2.83;2.40;;;;;;;;;;5098893;28;20275;-66
2021/07/16 10:40:34;;;;;;;2.47;2.07;;;;;;;;;;5101874;28;20204;-66
2021/07/16 10:43:04;;;;;;;2.90;2.60;;;;;;;;;;5100379;28;20220;-65
2021/07/16 10:45:33;;;;;;;3.20;2.60;;;;;;;;;;5101160;28;20197;-65
2021/07/16 10:48:11;;;;;;;2.63;2.13;;;;;;;;;;5100193;28;20201;-65
2021/07/16 10:50:39;;;;;;;2.73;2.07;;;;;;;;;;5100205;28;20224;-65
2021/07/16 10:53:08;;;;;;;1.93;1.80;;;;;;;;;;5112331;28;20218;-64
2021/07/16 10:55:54;;;;;;;2.27;2.07;;;;;;;;;;5100121;28;20202;-64
2021/07/16 10:58:24;;;;;;;3.23;2.20;;;;;;;;;;5085270;28;20653;-64
2021/07/16 11:00:52;;;;;;;2.43;1.90;;;;;;;;;;5095365;28;20205;-65
2021/07/16 11:03:21;;;;;;;4.97;2.17;;;;;;;;;;5097870;28;20623;-64
2021/07/16 11:05:51;;;;;;;2.27;2.00;;;;;;;;;;5099420;28;20197;-65
2021/07/16 11:08:49;;;;;;;2.90;2.13;;;;;;;;;;5100104;28;20204;-66
2021/07/16 11:11:18;;;;;;;2.60;2.40;;;;;;;;;;5094979;28;20233;-66
2021/07/16 11:13:47;;;;;;;28.17;9.67;;;;;;;;;;5099206;28;20205;-66
2021/07/16 11:16:35;;;;;;;20.77;7.83;;;;;;;;;;5098458;28;20206;-65
2021/07/16 11:19:03;;;;;;;25.83;9.63;;;;;;;;;;5098398;28;20668;-64
2021/07/16 11:21:52;;;;;;;17.23;7.33;;;;;;;;;;5098831;28;20221;-64
2021/07/16 11:24:24;;;;;;;2.87;2.33;;;;;;;;;;5098060;28;20248;-64
2021/07/16 11:26:53;;;;;;;4.83;3.80;;;;;;;;;;5100489;28;20197;-65
2021/07/16 11:29:25;;;;;;;7.90;4.33;;;;;;;;;;5116197;28;20299;-66
2021/07/16 11:32:04;;;;;;;7.93;4.40;;;;;;;;;;5101737;28;20232;-68
2021/07/16 11:34:32;;;;;;;4.37;3.30;;;;;;;;;;5109952;28;20205;-66
2021/07/16 11:37:04;;;;;;;3.03;2.40;;;;;;;;;;5098474;28;20253;-66
2021/07/16 11:39:33;;;;;;;2.47;2.33;;;;;;;;;;5098241;28;20203;-64
2021/07/16 11:42:02;;;;;;;2.10;1.90;;;;;;;;;;5108645;28;20213;-65
2021/07/16 11:44:33;;;;;;;2.40;2.00;;;;;;;;;;5113235;28;20205;-65
2021/07/16 11:47:14;;;;;;;2.10;2.00;;;;;;;;;;5118320;28;20209;-65
2021/07/16 11:49:43;;;;;;;2.27;2.07;;;;;;;;;;5100105;28;20201;-65
2021/07/16 11:52:14;;;;;;;2.77;2.50;;;;;;;;;;5085850;28;20252;-65
2021/07/16 11:54:42;;;;;;;5.10;2.40;;;;;;;;;;5089111;28;20197;-65
2021/07/16 11:57:14;;;;;;;2.97;2.40;;;;;;;;;;5094547;28;20216;-65
2021/07/16 11:59:47;;;;;;;2.30;2.10;;;;;;;;;;5087766;28;20194;-66
2021/07/16 12:02:16;;;;;;;2.27;2.07;;;;;;;;;;5088082;28;20592;-65
2021/07/16 12:04:45;;;;;;;2.23;2.03;;;;;;;;;;5088559;28;20194;-64
2021/07/16 12:07:14;;;;;;;1.93;1.83;;;;;;;;;;5088556;28;20204;-64
2021/07/16 12:09:44;;;;;;;2.60;2.40;;;;;;;;;;5087779;28;20204;-65
2021/07/16 12:12:18;;;;;;;2.43;2.23;;;;;;;;;;5091517;28;20285;-64
2021/07/16 12:14:51;;;;;;;2.90;2.20;;;;;;;;;;5087883;28;20198;-65
2021/07/16 12:17:21;;;;;;;2.53;2.27;;;;;;;;;;5087639;28;20649;-65
2021/07/16 12:19:49;;;;;;;2.33;2.20;;;;;;;;;;5083789;28;20198;-65
2021/07/16 12:22:19;;;;;;;2.60;2.07;;;;;;;;;;5088891;28;20215;-64
2021/07/16 12:24:47;;;;;;;2.70;2.30;;;;;;;;;;5087976;28;20194;-64
2021/07/16 12:27:16;;;;;;;2.47;2.27;;;;;;;;;;5086209;28;20676;-64
2021/07/16 12:29:44;;;;;;;2.53;2.27;;;;;;;;;;5104868;28;20196;-64
2021/07/16 12:32:14;;;;;;;3.67;2.50;;;;;;;;;;5105738;28;20236;-64
2021/07/16 12:34:45;;;;;;;4.13;2.23;;;;;;;;;;5093467;28;20212;-64
2021/07/16 12:37:14;;;;;;;2.60;2.33;;;;;;;;;;5087588;28;20230;-64
2021/07/16 12:39:43;;;;;;;2.63;2.43;;;;;;;;;;5088042;28;20205;-64
2021/07/16 12:42:16;;;;;;;2.00;1.90;;;;;;;;;;5088299;28;20218;-64
2021/07/16 12:45:04;;;;;;;2.37;2.17;;;;;;;;;;5087412;28;20193;-64
2021/07/16 12:47:34;;;;;;;2.37;2.17;;;;;;;;;;5088080;28;20212;-64
2021/07/16 12:50:11;;;;;;;2.50;2.30;;;;;;;;;;5102749;28;20210;-64
2021/07/16 12:52:39;;;;;;;5.00;2.40;;;;;;;;;;5097043;28;20235;-65
2021/07/16 12:55:12;;;;;;;2.67;2.43;;;;;;;;;;5096748;28;20215;-65
2021/07/16 12:57:40;;;;;;;2.77;1.83;;;;;;;;;;5097750;28;20213;-63
2021/07/16 13:00:16;;;;;;;2.60;2.40;;;;;;;;;;5097286;28;20208;-65
2021/07/16 13:02:47;;;;;;;2.20;2.00;;;;;;;;;;5097088;28;20229;-65
2021/07/16 13:05:28;;;;;;;3.70;2.13;;;;;;;;;;5097109;28;20767;-65
2021/07/16 13:08:14;;;;;;;2.30;2.10;;;;;;;;;;5097106;28;20231;-65
2021/07/16 13:11:02;;;;;;;2.07;1.97;;;;;;;;;;5097009;28;20213;-65
2021/07/16 13:13:32;;;;;;;2.50;2.03;;;;;;;;;;5096804;28;20261;-65
2021/07/16 13:16:13;;;;;;;2.30;2.10;;;;;;;;;;5100679;28;20244;-65
2021/07/16 13:18:44;;;;;;;2.37;1.97;;;;;;;;;;5100559;28;20238;-65
2021/07/16 13:21:12;;;;;;;2.70;2.50;;;;;;;;;;5100550;28;20199;-66
2021/07/16 13:23:40;;;;;;;1.83;1.70;;;;;;;;;;5101432;28;20217;-65
2021/07/16 13:26:09;;;;;;;2.77;2.47;;;;;;;;;;5098919;28;20204;-65
2021/07/16 13:28:38;;;;;;;2.17;2.00;;;;;;;;;;5100508;28;20204;-67
2021/07/16 13:31:06;;;;;;;2.10;2.00;;;;;;;;;;5099405;28;20256;-67
2021/07/16 13:33:34;;;;;;;2.30;2.10;;;;;;;;;;5103102;28;20205;-65
2021/07/16 13:36:04;;;;;;;2.10;1.90;;;;;;;;;;5100689;28;20289;-64
2021/07/16 13:38:33;;;;;;;3.13;1.77;;;;;;;;;;5101542;28;20236;-64
2021/07/16 13:41:02;;;;;;;1.63;1.53;;;;;;;;;;5101126;28;20642;-65
2021/07/16 13:43:30;;;;;;;2.50;2.30;;;;;;;;;;5100359;28;20215;-65
2021/07/16 13:45:58;;;;;;;2.00;1.90;;;;;;;;;;5100579;28;20200;-66
2021/07/16 13:48:26;;;;;;;2.10;1.90;;;;;;;;;;5096939;28;20196;-67
2021/07/16 13:50:55;;;;;;;2.60;2.40;;;;;;;;;;5100579;28;20671;-66
2021/07/16 13:53:24;;;;;;;2.43;2.30;;;;;;;;;;5098748;28;20227;-66
2021/07/16 13:55:52;;;;;;;1.97;1.87;;;;;;;;;;5099252;28;20204;-66
2021/07/16 13:58:20;;;;;;;3.37;1.93;;;;;;;;;;5099755;28;20216;-66
2021/07/16 14:00:48;;;;;;;1.60;1.50;;;;;;;;;;5097848;28;20207;-66
2021/07/16 14:03:16;;;;;;;2.10;2.00;;;;;;;;;;5101120;28;20217;-66
2021/07/16 14:05:44;;;;;;;1.90;1.80;;;;;;;;;;5100514;28;20203;-66
2021/07/16 14:08:13;;;;;;;2.27;2.07;;;;;;;;;;5098675;28;20682;-67
2021/07/16 14:10:43;;;;;;;1.93;1.83;;;;;;;;;;5097337;28;20219;-66
2021/07/16 14:13:11;;;;;;;2.10;2.00;;;;;;;;;;5100030;28;20237;-66
2021/07/16 14:15:39;;;;;;;1.83;1.73;;;;;;;;;;5100977;28;20202;-67
2021/07/16 14:18:07;;;;;;;2.70;1.67;;;;;;;;;;5098816;28;20229;-66
2021/07/16 14:20:35;;;;;;;2.17;2.07;;;;;;;;;;5101108;28;20310;-66
2021/07/16 14:23:03;;;;;;;2.10;2.00;;;;;;;;;;5097810;28;20225;-67
2021/07/16 14:25:31;;;;;;;2.30;1.70;;;;;;;;;;5098615;28;20195;-66
2021/07/16 14:28:01;;;;;;;2.73;2.53;;;;;;;;;;5100201;28;20209;-67
2021/07/16 14:30:29;;;;;;;1.90;1.80;;;;;;;;;;5101366;28;20243;-69
2021/07/16 14:32:57;;;;;;;2.73;2.53;;;;;;;;;;5098272;28;20223;-69
2021/07/16 14:35:27;;;;;;;3.27;2.07;;;;;;;;;;5099242;28;20209;-68
2021/07/16 14:37:55;;;;;;;2.30;2.10;;;;;;;;;;5099945;28;20342;-68
2021/07/16 14:40:23;;;;;;;2.13;1.70;;;;;;;;;;5095651;28;20209;-66
2021/07/16 14:42:51;;;;;;;2.70;2.50;;;;;;;;;;5098003;28;20215;-66
2021/07/16 14:45:21;;;;;;;2.30;2.20;;;;;;;;;;5097941;28;20196;-67
2021/07/16 14:47:51;;;;;;;2.33;1.73;;;;;;;;;;5099071;28;20197;-67
2021/07/16 14:50:21;;;;;;;2.50;2.30;;;;;;;;;;5101401;28;20201;-67
2021/07/16 14:52:50;;;;;;;2.07;1.97;;;;;;;;;;5096398;28;20228;-68
2021/07/16 14:55:19;;;;;;;2.47;1.90;;;;;;;;;;5099025;28;20208;-67
2021/07/16 14:57:50;;;;;;;2.50;2.30;;;;;;;;;;5098327;28;20206;-68